createdAt,value
2023-04-23T00:01:09.469Z,35.74
2023-04-23T00:03:37.681Z,35.74
2023-04-23T00:06:07.989Z,35.87
2023-04-23T00:08:36.056Z,35.97
2023-04-23T00:11:05.379Z,36.05
2023-04-23T00:13:34.142Z,36.10
2023-04-23T00:16:02.402Z,36.27
2023-04-23T00:18:30.651Z,36.31
2023-04-23T00:20:59.197Z,36.26
2023-04-23T00:23:28.798Z,36.39
2023-04-23T00:25:56.723Z,36.41
2023-04-23T00:28:25.720Z,36.51
2023-04-23T00:30:53.701Z,36.63
2023-04-23T00:33:21.648Z,36.67
2023-04-23T00:35:49.570Z,36.69
2023-04-23T00:38:17.657Z,36.84
2023-04-23T00:40:45.623Z,36.90
2023-04-23T00:43:17.793Z,36.97
2023-04-23T00:45:45.657Z,37.14
2023-04-23T00:48:13.606Z,37.23
2023-04-23T00:50:42.124Z,37.40
2023-04-23T00:53:10.068Z,37.57
2023-04-23T00:55:37.977Z,37.61
2023-04-23T00:58:06.946Z,37.57
2023-04-23T01:00:36.448Z,37.72
2023-04-23T01:03:04.875Z,37.87
2023-04-23T01:05:32.909Z,37.75
2023-04-23T01:08:02.286Z,37.66
2023-04-23T01:10:32.755Z,37.83
2023-04-23T01:13:00.981Z,37.92
2023-04-23T01:15:30.910Z,38.04
2023-04-23T01:17:59.678Z,38.05
2023-04-23T01:20:27.830Z,38.14
2023-04-23T01:22:56.364Z,38.16
2023-04-23T01:25:24.287Z,38.25
2023-04-23T01:27:52.424Z,38.31
2023-04-23T01:30:20.683Z,38.38
2023-04-23T01:32:48.714Z,38.53
2023-04-23T01:35:16.771Z,38.51
2023-04-23T01:37:44.772Z,38.53
2023-04-23T01:40:12.837Z,38.48
2023-04-23T01:42:41.517Z,38.68
2023-04-23T01:45:10.316Z,38.79
2023-04-23T01:47:38.671Z,38.90
2023-04-23T01:50:07.269Z,39.13
2023-04-23T01:52:35.179Z,38.89
2023-04-23T01:55:04.364Z,38.68
2023-04-23T01:57:33.594Z,38.59
2023-04-23T02:00:08.785Z,38.89
2023-04-23T02:02:44.237Z,38.94
2023-04-23T02:05:14.578Z,39.07
2023-04-23T02:07:44.006Z,39.23
2023-04-23T02:10:13.013Z,39.13
2023-04-23T02:12:41.809Z,39.12
2023-04-23T02:15:10.878Z,38.96
2023-04-23T02:17:42.241Z,39.18
2023-04-23T02:20:10.729Z,39.45
2023-04-23T02:22:39.699Z,39.76
2023-04-23T02:25:08.422Z,39.80
2023-04-23T02:27:36.696Z,39.75
2023-04-23T02:30:06.416Z,39.96
2023-04-23T02:32:34.791Z,40.09
2023-04-23T02:35:03.573Z,40.43
2023-04-23T02:37:33.204Z,40.63
2023-04-23T02:40:01.566Z,40.76
2023-04-23T02:42:30.093Z,40.74
2023-04-23T02:44:58.011Z,41.02
2023-04-23T02:47:25.968Z,41.24
2023-04-23T02:49:53.968Z,41.46
2023-04-23T02:52:21.921Z,41.17
2023-04-23T02:54:49.826Z,41.11
2023-04-23T02:57:17.829Z,41.08
2023-04-23T02:59:46.479Z,41.09
2023-04-23T03:02:15.584Z,41.36
2023-04-23T03:04:43.701Z,41.23
2023-04-23T03:07:13.485Z,41.28
2023-04-23T03:09:42.434Z,41.29
2023-04-23T03:12:10.665Z,41.41
2023-04-23T03:14:40.498Z,41.62
2023-04-23T03:17:08.724Z,41.68
2023-04-23T03:19:36.696Z,41.61
2023-04-23T03:22:05.936Z,41.57
2023-04-23T03:24:34.740Z,41.50
2023-04-23T03:27:03.197Z,41.37
2023-04-23T03:29:31.519Z,41.20
2023-04-23T03:31:59.466Z,40.90
2023-04-23T03:34:27.352Z,40.77
2023-04-23T03:36:55.326Z,40.76
2023-04-23T03:39:23.239Z,40.76
2023-04-23T03:41:53.680Z,40.64
2023-04-23T03:44:24.908Z,40.57
2023-04-23T03:46:52.887Z,40.51
2023-04-23T03:49:21.425Z,40.61
2023-04-23T03:51:49.394Z,40.57
2023-04-23T03:54:19.830Z,40.63
2023-04-23T03:57:06.701Z,40.57
2023-04-23T03:59:39.216Z,40.56
2023-04-23T04:02:07.294Z,40.73
2023-04-23T04:04:36.860Z,40.73
2023-04-23T04:07:06.234Z,40.73
2023-04-23T04:09:34.333Z,40.63
2023-04-23T04:12:04.250Z,40.38
2023-04-23T04:14:32.800Z,40.45
2023-04-23T04:17:00.822Z,40.49
2023-04-23T04:19:28.979Z,40.32
2023-04-23T04:21:56.923Z,40.26
2023-04-23T04:24:26.333Z,40.34
2023-04-23T04:26:54.634Z,40.47
2023-04-23T04:29:23.897Z,40.60
2023-04-23T04:31:52.091Z,40.66
2023-04-23T04:34:20.372Z,40.86
2023-04-23T04:36:48.362Z,40.86
2023-04-23T04:39:16.314Z,40.70
2023-04-23T04:41:44.608Z,40.62
2023-04-23T04:44:14.430Z,40.56
2023-04-23T04:46:43.029Z,40.68
2023-04-23T04:49:12.198Z,40.82
2023-04-23T04:51:40.609Z,41.03
2023-04-23T04:54:08.759Z,41.26
2023-04-23T04:56:36.897Z,41.87
2023-04-23T04:59:05.186Z,41.89
2023-04-23T05:01:33.472Z,42.07
2023-04-23T05:04:01.846Z,42.53
2023-04-23T05:06:31.381Z,42.73
2023-04-23T05:08:59.574Z,42.80
2023-04-23T05:11:27.568Z,42.58
2023-04-23T05:13:56.772Z,42.57
2023-04-23T05:16:24.740Z,42.45
2023-04-23T05:18:52.652Z,41.86
2023-04-23T05:21:20.868Z,42.03
2023-04-23T05:23:49.901Z,42.05
2023-04-23T05:26:18.361Z,41.56
2023-04-23T05:28:46.403Z,41.18
2023-04-23T05:31:14.354Z,41.40
2023-04-23T05:33:49.966Z,41.54
2023-04-23T05:36:19.138Z,41.46
2023-04-23T05:38:47.374Z,41.14
2023-04-23T05:41:15.738Z,39.85
2023-04-23T05:43:44.151Z,40.28
2023-04-23T05:46:12.102Z,40.58
2023-04-23T05:48:41.027Z,40.53
2023-04-23T05:51:09.200Z,40.83
2023-04-23T05:53:37.826Z,40.65
2023-04-23T05:56:05.888Z,40.34
2023-04-23T05:58:34.443Z,39.93
2023-04-23T06:01:03.194Z,40.35
2023-04-23T06:04:53.431Z,40.93
2023-04-23T06:07:21.744Z,39.75
2023-04-23T06:09:50.755Z,39.36
2023-04-23T06:12:18.712Z,39.35
2023-04-23T06:14:46.631Z,39.24
2023-04-23T06:17:14.632Z,39.29
2023-04-23T06:19:42.826Z,39.27
2023-04-23T06:22:10.716Z,39.59
2023-04-23T06:24:39.119Z,39.07
2023-04-23T06:27:07.877Z,39.00
2023-04-23T06:29:38.058Z,37.71
2023-04-23T06:32:07.471Z,37.79
2023-04-23T06:34:36.106Z,37.52
2023-04-23T06:37:05.334Z,37.10
2023-04-23T06:39:33.304Z,36.79
2023-04-23T06:42:01.807Z,35.88
2023-04-23T06:44:47.102Z,35.77
2023-04-23T06:47:15.022Z,36.05
2023-04-23T06:49:44.391Z,35.53
2023-04-23T06:52:12.252Z,34.71
2023-04-23T06:54:40.972Z,34.13
2023-04-23T06:57:09.552Z,33.28
2023-04-23T06:59:37.489Z,32.66
2023-04-23T07:02:05.379Z,33.16
2023-04-23T07:04:34.076Z,33.52
2023-04-23T07:07:02.179Z,33.37
2023-04-23T07:09:30.933Z,33.06
2023-04-23T07:12:00.294Z,33.07
2023-04-23T07:14:28.575Z,33.30
2023-04-23T07:16:56.494Z,32.86
2023-04-23T07:19:25.024Z,31.76
2023-04-23T07:21:53.770Z,31.74
2023-04-23T07:24:21.803Z,31.63
2023-04-23T07:26:49.756Z,29.61
2023-04-23T07:29:17.913Z,30.03
2023-04-23T07:31:46.510Z,30.54
2023-04-23T07:34:14.482Z,29.61
2023-04-23T07:36:42.371Z,29.98
2023-04-23T07:39:10.369Z,29.33
2023-04-23T07:41:38.573Z,29.10
2023-04-23T07:44:06.706Z,29.12
2023-04-23T07:46:34.722Z,28.62
2023-04-23T07:49:02.819Z,27.76
2023-04-23T07:51:31.956Z,28.48
2023-04-23T07:54:00.126Z,29.13
2023-04-23T07:56:28.203Z,29.57
2023-04-23T07:58:58.279Z,30.22
2023-04-23T08:01:27.651Z,29.89
2023-04-23T08:04:00.914Z,29.49
2023-04-23T08:06:31.417Z,29.11
2023-04-23T08:09:00.398Z,28.73
2023-04-23T08:11:29.743Z,30.10
2023-04-23T08:13:57.650Z,30.49
2023-04-23T08:16:26.187Z,30.71
2023-04-23T08:19:04.664Z,31.35
2023-04-23T08:21:34.045Z,31.85
2023-04-23T08:24:03.289Z,32.42
2023-04-23T08:26:31.668Z,32.82
2023-04-23T08:29:00.859Z,33.04
2023-04-23T08:31:29.129Z,32.19
2023-04-23T08:33:57.046Z,32.61
2023-04-23T08:36:26.992Z,32.60
2023-04-23T08:38:54.886Z,32.00
2023-04-23T08:41:23.588Z,31.94
2023-04-23T08:44:12.848Z,31.45
2023-04-23T08:46:43.157Z,29.86
2023-04-23T08:49:16.001Z,29.67
2023-04-23T08:51:50.889Z,28.05
2023-04-23T08:54:27.133Z,23.93
2023-04-23T08:56:57.506Z,24.22
2023-04-23T08:59:30.488Z,25.69
2023-04-23T09:01:59.919Z,25.12
2023-04-23T09:04:28.584Z,25.16
2023-04-23T09:06:56.971Z,25.84
2023-04-23T09:09:24.978Z,26.18
2023-04-23T09:11:54.898Z,26.89
2023-04-23T09:14:25.610Z,26.94
2023-04-23T09:16:53.926Z,26.98
2023-04-23T09:19:22.246Z,27.38
2023-04-23T09:21:50.142Z,27.14
2023-04-23T09:24:18.184Z,27.30
2023-04-23T09:26:47.262Z,27.68
2023-04-23T09:29:23.559Z,27.22
2023-04-23T09:31:53.713Z,27.28
2023-04-23T09:34:23.390Z,27.64
2023-04-23T09:36:52.186Z,27.54
2023-04-23T09:39:22.769Z,27.80
2023-04-23T09:41:54.202Z,27.75
2023-04-23T09:44:26.602Z,27.73
2023-04-23T09:46:54.538Z,27.76
2023-04-23T09:49:22.652Z,28.03
2023-04-23T09:51:51.393Z,27.48
2023-04-23T09:54:23.722Z,26.82
2023-04-23T09:56:53.981Z,25.91
2023-04-23T09:59:46.835Z,26.49
2023-04-23T10:02:14.732Z,27.82
2023-04-23T10:04:43.031Z,28.01
2023-04-23T10:07:19.627Z,27.66
2023-04-23T10:09:48.666Z,27.25
2023-04-23T10:12:36.581Z,27.27
2023-04-23T10:15:05.812Z,27.18
2023-04-23T10:17:36.372Z,26.94
2023-04-23T10:20:07.176Z,27.08
2023-04-23T10:22:36.259Z,26.48
2023-04-23T10:25:08.749Z,26.32
2023-04-23T10:27:52.157Z,26.13
2023-04-23T10:30:22.227Z,26.29
2023-04-23T10:32:50.634Z,26.28
2023-04-23T10:35:19.042Z,26.25
2023-04-23T10:37:48.307Z,25.68
2023-04-23T10:40:22.044Z,25.34
2023-04-23T10:42:50.121Z,24.81
2023-04-23T10:45:24.876Z,24.46
2023-04-23T10:47:55.415Z,23.93
2023-04-23T10:50:30.840Z,23.40
2023-04-23T10:52:59.332Z,22.89
2023-04-23T10:55:28.818Z,22.80
2023-04-23T10:58:07.610Z,22.54
2023-04-23T11:00:41.489Z,22.27
2023-04-23T11:03:29.216Z,21.86
2023-04-23T11:06:01.126Z,21.27
2023-04-23T11:08:33.376Z,21.09
2023-04-23T11:11:02.976Z,20.97
2023-04-23T11:13:31.055Z,20.67
2023-04-23T11:16:18.759Z,20.62
2023-04-23T11:19:11.435Z,20.25
2023-04-23T11:21:54.791Z,20.53
2023-04-23T11:24:23.989Z,20.52
2023-04-23T11:26:53.304Z,20.14
2023-04-23T11:29:24.972Z,19.79
2023-04-23T11:32:02.251Z,19.71
2023-04-23T11:34:33.127Z,19.06
2023-04-23T11:37:02.373Z,18.63
2023-04-23T11:39:30.762Z,18.60
2023-04-23T11:42:03.460Z,18.70
2023-04-23T11:44:32.038Z,19.25
2023-04-23T11:47:02.124Z,19.13
2023-04-23T11:49:30.352Z,19.47
2023-04-23T11:52:00.736Z,19.52
2023-04-23T11:54:29.696Z,18.83
2023-04-23T11:57:01.507Z,18.77
2023-04-23T11:59:29.632Z,18.54
2023-04-23T12:01:58.885Z,18.53
2023-04-23T12:51:50.123Z,16.68
2023-04-23T12:54:18.152Z,16.89
2023-04-23T12:56:46.048Z,17.08
2023-04-23T12:59:13.909Z,17.27
2023-04-23T13:01:41.889Z,17.49
2023-04-23T13:04:09.976Z,17.77
2023-04-23T13:06:38.224Z,18.11
2023-04-23T13:09:06.182Z,18.21
2023-04-23T13:11:34.500Z,18.37
2023-04-23T13:14:02.482Z,18.39
2023-04-23T13:16:30.511Z,18.46
2023-04-23T13:18:59.497Z,18.35
2023-04-23T13:21:27.558Z,18.65
2023-04-23T13:32:36.731Z,19.81
2023-04-23T13:35:05.226Z,20.00
2023-04-23T13:37:35.610Z,20.05
2023-04-23T13:40:03.754Z,20.20
2023-04-23T13:42:34.405Z,20.37
2023-04-23T13:45:05.153Z,20.36
2023-04-23T13:47:35.072Z,20.07
2023-04-23T13:50:05.579Z,19.81
2023-04-23T13:52:33.958Z,19.43
2023-04-23T13:55:04.226Z,19.09
2023-04-23T13:57:32.576Z,19.09
2023-04-23T14:00:00.820Z,18.74
2023-04-23T14:02:28.862Z,18.36
2023-04-23T14:04:58.484Z,18.08
2023-04-23T14:07:26.615Z,17.57
2023-04-23T14:09:54.619Z,18.03
2023-04-23T14:12:24.111Z,18.46
2023-04-23T14:14:52.062Z,18.89
2023-04-23T14:17:20.059Z,19.32
2023-04-23T14:19:48.219Z,19.76
2023-04-23T14:22:16.443Z,19.98
2023-04-23T14:24:45.921Z,20.13
2023-04-23T14:27:13.901Z,20.43
2023-04-23T14:29:52.495Z,20.66
2023-04-23T14:32:20.894Z,20.80
2023-04-23T14:34:48.939Z,21.06
2023-04-23T14:37:17.628Z,21.08
2023-04-23T14:39:44.592Z,21.29
2023-04-23T14:42:11.688Z,21.60
2023-04-23T14:44:38.461Z,21.66
2023-04-23T14:47:08.302Z,21.68
2023-04-23T14:49:35.086Z,21.76
2023-04-23T14:52:02.123Z,22.03
2023-04-23T14:54:28.912Z,22.12
2023-04-23T14:56:56.591Z,22.17
2023-04-23T14:59:23.546Z,22.17
2023-04-23T15:01:50.459Z,22.36
2023-04-23T15:04:17.620Z,22.39
2023-04-23T15:06:44.541Z,22.33
2023-04-23T15:09:11.274Z,21.87
2023-04-23T15:11:41.794Z,21.31
2023-04-23T15:14:12.154Z,20.67
2023-04-23T15:19:11.970Z,19.81
2023-04-23T15:21:41.926Z,19.50
2023-04-23T15:24:08.981Z,19.26
2023-04-23T15:26:36.521Z,18.88
2023-04-23T15:29:04.061Z,18.28
2023-04-23T15:31:30.999Z,18.26
2023-04-23T15:33:57.839Z,18.10
2023-04-23T15:36:25.255Z,17.98
2023-04-23T15:38:52.083Z,17.98
2023-04-23T15:41:18.903Z,17.86
2023-04-23T15:43:46.549Z,17.68
2023-04-23T15:46:13.444Z,17.67
2023-04-23T15:48:40.316Z,17.96
2023-04-23T15:51:07.466Z,18.16
2023-04-23T15:53:34.253Z,18.52
2023-04-23T15:56:01.104Z,18.54
2023-04-23T15:58:27.955Z,18.77
2023-04-23T16:00:54.997Z,18.83
2023-04-23T16:03:21.942Z,18.94
2023-04-23T16:05:51.062Z,18.99
2023-04-23T16:08:17.929Z,19.18
2023-04-23T16:10:44.744Z,19.15
2023-04-23T16:13:11.520Z,19.35
2023-04-23T16:15:38.317Z,19.64
2023-04-23T16:18:06.351Z,19.68
2023-04-23T16:20:33.495Z,19.73
2023-04-23T16:23:00.367Z,19.98
2023-04-23T16:25:27.201Z,19.95
2023-04-23T16:27:54.081Z,20.10
2023-04-23T16:30:21.187Z,20.25
2023-04-23T16:32:48.134Z,20.22
2023-04-23T16:35:14.993Z,20.48
2023-04-23T16:37:41.805Z,20.64
2023-04-23T16:40:10.413Z,20.67
2023-04-23T16:42:37.353Z,20.95
2023-04-23T16:45:05.097Z,21.02
2023-04-23T16:47:32.030Z,21.26
2023-04-23T16:49:58.960Z,21.47
2023-04-23T16:52:25.790Z,21.71
2023-04-23T16:54:52.801Z,21.85
2023-04-23T16:57:19.690Z,22.21
2023-04-23T16:59:46.483Z,22.57
2023-04-23T17:02:13.328Z,22.87
2023-04-23T17:04:40.390Z,23.05
2023-04-23T17:07:07.615Z,23.26
2023-04-23T17:09:34.799Z,23.69
2023-04-23T17:12:02.532Z,24.14
2023-04-23T17:14:29.369Z,24.42
2023-04-23T17:16:56.397Z,24.83
2023-04-23T17:19:23.161Z,25.09
2023-04-23T17:21:49.938Z,25.46
2023-04-23T17:24:16.764Z,25.70
2023-04-23T17:26:43.778Z,26.06
2023-04-23T17:29:11.661Z,26.24
2023-04-23T17:31:38.762Z,26.70
2023-04-23T17:34:05.704Z,26.84
2023-04-23T17:36:33.108Z,27.07
2023-04-23T17:38:59.964Z,27.35
2023-04-23T17:41:26.795Z,27.68
2023-04-23T17:43:53.677Z,28.00
2023-04-23T17:46:20.920Z,28.21
2023-04-23T17:48:48.423Z,28.43
2023-04-23T17:51:15.255Z,28.52
2023-04-23T17:53:42.603Z,28.60
2023-04-23T17:56:10.244Z,28.78
2023-04-23T17:58:38.330Z,29.19
2023-04-23T18:01:10.189Z,29.23
2023-04-23T18:03:37.328Z,29.37
2023-04-23T18:06:04.784Z,29.61
2023-04-23T18:08:31.717Z,29.68
2023-04-23T18:10:58.736Z,29.86
2023-04-23T18:13:25.571Z,29.92
2023-04-23T18:15:52.639Z,30.02
2023-04-23T18:18:19.475Z,30.09
2023-04-23T18:22:37.792Z,31.01
2023-04-23T18:25:10.072Z,30.55
2023-04-23T18:27:37.038Z,30.54
2023-04-23T18:30:05.866Z,30.52
2023-04-23T18:32:40.946Z,30.80
2023-04-23T18:35:09.252Z,31.10
2023-04-23T18:37:48.640Z,31.09
2023-04-23T18:40:15.525Z,31.25
2023-04-23T18:42:42.304Z,31.30
2023-04-23T18:45:10.787Z,31.44
2023-04-23T18:47:46.521Z,31.41
2023-04-23T18:50:30.093Z,31.59
2023-04-23T18:52:56.883Z,31.56
2023-04-23T18:55:24.655Z,31.70
2023-04-23T18:57:51.530Z,31.82
2023-04-23T19:00:18.402Z,31.88
2023-04-23T19:02:45.287Z,31.95
2023-04-23T19:05:12.329Z,32.17
2023-04-23T19:07:41.386Z,32.20
2023-04-23T19:10:11.720Z,32.31
2023-04-23T19:12:38.499Z,32.35
2023-04-23T19:15:05.960Z,32.50
2023-04-23T19:17:33.100Z,32.56
2023-04-23T19:19:59.966Z,32.63
2023-04-23T19:22:27.258Z,32.71
2023-04-23T19:24:54.052Z,32.78
2023-04-23T19:27:21.573Z,32.88
2023-04-23T19:29:49.465Z,33.00
2023-04-23T19:32:16.321Z,33.09
2023-04-23T19:34:43.129Z,33.05
2023-04-23T19:37:09.935Z,33.13
2023-04-23T19:39:36.720Z,33.17
2023-04-23T19:42:04.577Z,33.34
2023-04-23T19:44:31.381Z,33.66
2023-04-23T19:46:58.196Z,33.85
2023-04-23T19:49:24.995Z,33.81
2023-04-23T19:51:53.246Z,33.99
2023-04-23T19:54:20.674Z,34.09
2023-04-23T19:56:48.238Z,34.21
2023-04-23T19:59:17.048Z,34.31
2023-04-23T20:01:43.805Z,34.32
2023-04-23T20:04:10.697Z,34.52
2023-04-23T20:06:37.778Z,34.49
2023-04-23T20:09:07.511Z,34.54
2023-04-23T20:11:35.418Z,34.66
2023-04-23T20:14:02.838Z,34.76
2023-04-23T20:16:29.718Z,34.75
2023-04-23T20:18:56.714Z,34.90
2023-04-23T20:21:23.991Z,34.97
2023-04-23T20:23:51.908Z,35.06
2023-04-23T20:26:19.687Z,34.97
2023-04-23T20:28:48.295Z,35.00
2023-04-23T20:31:15.205Z,35.06
2023-04-23T20:33:42.007Z,35.05
2023-04-23T20:36:10.960Z,35.14
2023-04-23T20:38:38.151Z,35.24
2023-04-23T20:41:05.938Z,35.31
2023-04-23T20:43:34.257Z,35.40
2023-04-23T20:46:01.636Z,35.42
2023-04-23T20:48:32.035Z,35.43
2023-04-23T20:50:59.616Z,35.53
2023-04-23T20:53:26.560Z,35.36
2023-04-23T20:55:53.325Z,35.38
2023-04-23T20:58:20.146Z,35.44
2023-04-23T21:00:47.991Z,35.47
2023-04-23T21:03:14.844Z,35.32
2023-04-23T21:05:44.675Z,35.41
2023-04-23T21:08:11.641Z,35.41
2023-04-23T21:10:39.041Z,35.40
2023-04-23T21:13:07.267Z,35.55
2023-04-23T21:15:35.646Z,35.53
2023-04-23T21:18:02.979Z,35.40
2023-04-23T21:20:30.079Z,35.45
2023-04-23T21:22:56.816Z,35.55
2023-04-23T21:25:23.586Z,35.61
2023-04-23T21:27:50.532Z,35.58
2023-04-23T21:30:38.556Z,35.56
2023-04-23T21:33:06.420Z,35.71
2023-04-23T21:35:33.234Z,35.67
2023-04-23T21:38:00.031Z,35.69
2023-04-23T21:40:26.858Z,35.75
2023-04-23T21:42:53.637Z,35.79
2023-04-23T21:45:20.587Z,35.79
2023-04-23T21:47:47.364Z,35.77
2023-04-23T21:50:14.223Z,35.74
2023-04-23T21:52:42.001Z,35.80
2023-04-23T21:55:11.466Z,35.80
2023-04-23T21:57:39.062Z,35.85
2023-04-23T22:00:11.210Z,35.91
2023-04-23T22:02:42.225Z,35.82
2023-04-23T22:05:09.774Z,35.99
2023-04-23T22:07:41.191Z,36.01
2023-04-23T22:10:11.650Z,36.04
2023-04-23T22:12:41.948Z,35.96
2023-04-23T22:15:13.875Z,35.98
2023-04-23T22:17:42.563Z,35.96
2023-04-23T22:20:12.022Z,35.98
2023-04-23T22:22:40.116Z,36.06
2023-04-23T22:25:08.057Z,36.06
2023-04-23T22:27:37.111Z,36.23
2023-04-23T22:30:06.732Z,36.41
2023-04-23T22:32:34.383Z,36.43
2023-04-23T22:35:01.288Z,36.58
2023-04-23T22:37:29.340Z,36.58
2023-04-23T22:39:56.178Z,36.62
2023-04-23T22:42:22.999Z,36.67
2023-04-23T22:44:49.797Z,36.79
2023-04-23T22:47:17.976Z,36.74
2023-04-23T22:49:44.992Z,36.73
2023-04-23T22:52:14.235Z,36.71
2023-04-23T22:54:41.777Z,36.72
2023-04-23T22:57:09.244Z,36.71
2023-04-23T22:59:36.209Z,36.90
2023-04-23T23:02:03.002Z,36.83
2023-04-23T23:04:29.900Z,36.79
2023-04-23T23:06:56.708Z,36.90
2023-04-23T23:09:24.571Z,36.98
2023-04-23T23:11:51.359Z,37.07
2023-04-23T23:14:18.428Z,37.19
2023-04-23T23:16:45.372Z,37.18
2023-04-23T23:19:12.714Z,37.15
2023-04-23T23:21:39.590Z,37.24
2023-04-23T23:24:06.394Z,37.43
2023-04-23T23:26:34.193Z,37.53
2023-04-23T23:29:02.037Z,37.70
2023-04-23T23:31:28.860Z,37.83
2023-04-23T23:33:55.756Z,37.86
2023-04-23T23:36:22.593Z,37.96
2023-04-23T23:38:51.037Z,37.99
2023-04-23T23:41:17.840Z,38.01
2023-04-23T23:43:44.628Z,38.21
2023-04-23T23:46:11.924Z,38.40
2023-04-23T23:48:38.794Z,38.32
2023-04-23T23:51:05.665Z,38.14
2023-04-23T23:53:32.433Z,38.22
2023-04-23T23:56:00.202Z,38.17
2023-04-23T23:58:29.406Z,38.12
